Time;durP1;ratioP1;P1;durP2;ratioP2;P2;SDS_P1;SDS_P2;PMS_P1;PMS_P2;Temp;Humidity;BMP_temperature;BMP_pressure;BME280_temperature;BME280_humidity;BME280_pressure;Samples;Min_cycle;Max_cycle;Signal;HPM_P1;HPM_P2
2024/01/15 00:02:00;;;;;;;7.43;5.35;;;1.70;99.90;;;;;;5055230;28;20556;-85
2024/01/15 00:04:26;;;;;;;8.00;5.63;;;1.70;99.90;;;;;;5028808;28;20359;-85
2024/01/15 00:06:53;;;;;;;8.40;5.57;;;1.70;99.90;;;;;;5048151;28;20033;-88
2024/01/15 00:09:18;;;;;;;8.48;5.68;;;1.70;99.90;;;;;;5057282;28;20044;-87
2024/01/15 00:11:44;;;;;;;10.07;5.97;;;1.60;99.90;;;;;;5044144;28;20462;-84
2024/01/15 00:14:10;;;;;;;8.60;5.97;;;1.60;99.90;;;;;;5044809;28;20033;-89
2024/01/15 00:16:37;;;;;;;11.80;7.00;;;1.60;99.90;;;;;;5044907;28;20078;-89
2024/01/15 00:19:03;;;;;;;8.32;6.00;;;1.60;99.90;;;;;;5039803;28;21296;-83
2024/01/15 00:21:29;;;;;;;11.65;6.38;;;1.60;99.90;;;;;;5042010;28;20036;-84
2024/01/15 00:23:55;;;;;;;10.10;6.55;;;1.60;99.90;;;;;;5045975;28;20063;-83
2024/01/15 00:26:20;;;;;;;10.80;6.53;;;1.60;99.90;;;;;;5051548;28;20668;-83
2024/01/15 00:28:46;;;;;;;15.77;7.95;;;1.60;99.90;;;;;;5042049;28;20413;-83
2024/01/15 00:31:11;;;;;;;8.02;5.50;;;1.60;99.90;;;;;;5040106;28;20071;-85
2024/01/15 00:33:37;;;;;;;14.27;9.02;;;1.60;99.90;;;;;;5039132;28;20209;-86
2024/01/15 00:36:03;;;;;;;11.65;6.88;;;1.60;99.90;;;;;;5039747;28;20107;-86
2024/01/15 00:38:28;;;;;;;9.02;6.68;;;1.60;99.90;;;;;;5052043;28;20055;-87
2024/01/15 00:40:54;;;;;;;9.05;5.78;;;1.60;99.90;;;;;;5038901;28;20034;-81
2024/01/15 00:43:21;;;;;;;7.00;5.45;;;1.60;99.90;;;;;;5044131;28;20025;-88
2024/01/15 00:45:46;;;;;;;11.73;5.82;;;1.60;99.90;;;;;;5037504;28;20333;-86
2024/01/15 00:48:12;;;;;;;9.38;6.03;;;1.60;99.90;;;;;;5027681;28;20029;-90
2024/01/15 00:50:38;;;;;;;9.60;6.35;;;1.60;99.90;;;;;;5024936;28;20095;-85
2024/01/15 00:53:04;;;;;;;11.02;5.97;;;1.60;99.90;;;;;;5041595;28;20056;-84
2024/01/15 00:55:29;;;;;;;9.35;7.07;;;1.60;99.90;;;;;;5034877;28;20025;-83
2024/01/15 00:57:55;;;;;;;12.65;6.47;;;1.60;99.90;;;;;;5046154;28;20151;-88
2024/01/15 01:00:21;;;;;;;7.45;5.88;;;1.60;99.90;;;;;;5046653;28;20051;-83
2024/01/15 01:02:48;;;;;;;8.70;5.88;;;1.60;99.90;;;;;;5044931;28;20100;-85
2024/01/15 01:05:14;;;;;;;8.38;6.15;;;1.60;99.90;;;;;;5051199;28;20025;-88
2024/01/15 01:07:39;;;;;;;10.88;6.82;;;1.50;99.90;;;;;;5038869;28;20132;-85
2024/01/15 01:10:05;;;;;;;7.00;5.43;;;1.60;99.90;;;;;;5040299;28;20380;-84
2024/01/15 01:12:32;;;;;;;6.65;5.45;;;1.60;99.90;;;;;;5045464;28;20128;-83
2024/01/15 01:14:58;;;;;;;8.02;5.85;;;1.70;99.90;;;;;;5042663;28;20128;-85
2024/01/15 01:17:24;;;;;;;6.68;5.25;;;1.60;99.90;;;;;;5045606;28;20025;-84
2024/01/15 01:19:50;;;;;;;11.23;6.05;;;1.60;99.90;;;;;;5042875;28;20102;-82
2024/01/15 01:22:16;;;;;;;7.88;6.22;;;1.60;99.90;;;;;;5048894;28;20485;-83
2024/01/15 01:24:41;;;;;;;12.07;5.82;;;1.60;99.90;;;;;;5045128;28;20033;-83
2024/01/15 01:27:08;;;;;;;8.50;5.72;;;1.60;99.90;;;;;;5043435;28;20244;-82
2024/01/15 01:29:34;;;;;;;7.70;5.82;;;1.60;99.90;;;;;;5047913;28;20032;-82
2024/01/15 01:32:00;;;;;;;9.07;5.82;;;1.60;99.90;;;;;;5042504;28;20033;-82
2024/01/15 01:34:26;;;;;;;9.90;6.35;;;1.60;99.90;;;;;;5044630;28;20040;-84
2024/01/15 01:36:51;;;;;;;7.65;5.75;;;1.60;99.90;;;;;;5046630;28;20280;-82
2024/01/15 01:39:17;;;;;;;10.73;6.65;;;1.50;99.90;;;;;;5042069;28;20071;-84
2024/01/15 01:41:42;;;;;;;10.55;6.28;;;1.50;99.90;;;;;;5048290;28;20032;-82
2024/01/15 01:44:09;;;;;;;8.23;5.97;;;1.50;99.90;;;;;;5044947;28;20398;-85
2024/01/15 01:46:40;;;;;;;7.93;5.43;;;1.50;99.90;;;;;;5041567;28;20037;-83
2024/01/15 01:49:10;;;;;;;7.03;5.28;;;1.50;99.90;;;;;;5019272;28;20029;-83
2024/01/15 01:51:39;;;;;;;8.23;4.78;;;1.50;99.90;;;;;;5041514;28;20474;-90
2024/01/15 01:54:06;;;;;;;8.57;5.05;;;1.50;99.90;;;;;;5050189;28;20032;-89
2024/01/15 01:56:35;;;;;;;8.10;5.47;;;1.50;99.90;;;;;;5048250;28;20470;-89
2024/01/15 01:59:03;;;;;;;6.68;5.03;;;1.50;99.90;;;;;;5043707;28;20478;-89
2024/01/15 02:01:31;;;;;;;6.57;5.22;;;1.50;99.90;;;;;;5050329;28;20037;-89
2024/01/15 02:03:56;;;;;;;9.43;5.30;;;1.50;99.90;;;;;;5043883;28;20491;-90
2024/01/15 02:06:23;;;;;;;8.85;5.25;;;1.50;99.90;;;;;;5026220;28;20569;-88
2024/01/15 02:08:50;;;;;;;7.63;5.78;;;1.60;99.90;;;;;;5043190;28;20037;-83
2024/01/15 02:11:15;;;;;;;6.65;5.05;;;1.60;99.90;;;;;;5037776;28;20048;-84
2024/01/15 02:13:41;;;;;;;9.10;5.65;;;1.60;99.90;;;;;;5043910;28;20029;-83
2024/01/15 02:16:07;;;;;;;7.57;5.70;;;1.60;99.90;;;;;;5042431;28;20111;-83
2024/01/15 02:18:46;;;;;;;7.97;5.32;;;1.60;99.90;;;;;;5048421;28;20047;-83
2024/01/15 02:21:11;;;;;;;8.90;5.47;;;1.70;99.90;;;;;;5041035;28;20029;-82
2024/01/15 02:23:40;;;;;;;10.30;5.90;;;1.60;99.90;;;;;;5043646;28;20578;-81
2024/01/15 02:26:06;;;;;;;13.95;6.30;;;1.70;99.90;;;;;;5042508;28;20028;-82
2024/01/15 02:28:33;;;;;;;8.88;6.07;;;1.70;99.90;;;;;;5042888;28;20079;-84
2024/01/15 02:31:02;;;;;;;9.70;6.05;;;1.70;99.90;;;;;;5043711;28;20044;-86
2024/01/15 02:33:27;;;;;;;7.25;5.20;;;1.70;99.90;;;;;;5048392;28;20047;-84
2024/01/15 02:35:53;;;;;;;12.40;5.45;;;1.70;99.90;;;;;;5043339;28;20115;-83
2024/01/15 02:38:19;;;;;;;11.63;5.65;;;1.70;99.90;;;;;;5047531;28;20025;-81
2024/01/15 02:40:47;;;;;;;9.30;5.43;;;1.80;99.90;;;;;;5046657;28;20029;-86
2024/01/15 02:43:13;;;;;;;7.13;3.67;;;1.70;99.90;;;;;;5042114;28;20520;-88
2024/01/15 02:45:39;;;;;;;6.50;4.05;;;1.70;99.90;;;;;;5043207;28;20045;-84
2024/01/15 02:48:05;;;;;;;13.85;4.85;;;1.70;99.90;;;;;;5045885;28;20060;-82
2024/01/15 02:50:30;;;;;;;7.82;3.90;;;1.70;99.90;;;;;;5045861;28;20041;-84
2024/01/15 02:52:56;;;;;;;11.55;4.57;;;1.60;99.90;;;;;;5045429;28;20071;-82
2024/01/15 02:55:22;;;;;;;9.10;4.47;;;1.60;99.90;;;;;;5049811;28;20029;-89
2024/01/15 02:57:48;;;;;;;7.18;4.03;;;1.60;99.90;;;;;;5053888;28;20063;-84
2024/01/15 03:00:14;;;;;;;9.30;3.85;;;1.60;99.90;;;;;;5040921;28;20481;-84
2024/01/15 03:02:43;;;;;;;7.13;4.25;;;1.60;99.90;;;;;;5042722;28;20025;-89
2024/01/15 03:05:09;;;;;;;11.05;4.40;;;1.60;99.90;;;;;;5045765;28;20036;-86
2024/01/15 03:07:35;;;;;;;10.18;4.47;;;1.50;99.90;;;;;;5043687;28;20886;-83
2024/01/15 03:10:00;;;;;;;10.45;4.55;;;1.50;99.90;;;;;;5023305;28;20475;-80
2024/01/15 03:12:26;;;;;;;8.32;4.35;;;1.50;99.90;;;;;;5054550;28;20029;-82
2024/01/15 03:14:52;;;;;;;10.20;4.88;;;1.50;99.90;;;;;;5043367;28;20052;-83
2024/01/15 03:17:17;;;;;;;12.68;4.05;;;1.50;99.90;;;;;;5036535;28;20085;-85
2024/01/15 03:19:43;;;;;;;7.95;4.63;;;1.40;99.90;;;;;;5042559;28;20036;-83
2024/01/15 03:22:09;;;;;;;7.63;3.97;;;1.50;99.90;;;;;;5042309;28;20508;-82
2024/01/15 03:24:35;;;;;;;9.32;4.55;;;1.50;99.90;;;;;;5045119;28;20512;-86
2024/01/15 03:27:02;;;;;;;6.82;4.43;;;1.50;99.90;;;;;;5041805;28;20037;-82
2024/01/15 03:29:28;;;;;;;9.85;4.88;;;1.50;99.90;;;;;;5020305;28;20063;-85
2024/01/15 03:31:54;;;;;;;12.23;5.10;;;1.40;99.90;;;;;;5041334;28;20414;-83
2024/01/15 03:34:19;;;;;;;10.10;4.72;;;1.50;99.90;;;;;;5030892;28;20037;-84
2024/01/15 03:36:45;;;;;;;7.97;4.72;;;1.40;99.90;;;;;;5040795;28;20052;-87
2024/01/15 03:39:14;;;;;;;13.18;5.22;;;1.50;99.90;;;;;;5041290;28;20059;-86
2024/01/15 03:41:39;;;;;;;8.55;5.05;;;1.50;99.90;;;;;;5038071;28;20108;-87
2024/01/15 03:44:05;;;;;;;24.45;5.30;;;1.50;99.90;;;;;;5041746;28;20171;-85
2024/01/15 03:46:34;;;;;;;10.48;4.55;;;1.50;99.90;;;;;;5044127;28;20029;-82
2024/01/15 03:48:59;;;;;;;10.43;4.22;;;1.50;99.90;;;;;;5039784;28;20405;-82
2024/01/15 03:51:25;;;;;;;14.10;5.63;;;1.60;99.90;;;;;;5039826;28;20055;-82
2024/01/15 03:53:51;;;;;;;14.75;5.13;;;1.60;99.90;;;;;;5040439;28;20029;-88
2024/01/15 03:56:17;;;;;;;9.43;3.50;;;1.60;99.90;;;;;;5048089;28;20253;-86
2024/01/15 03:58:42;;;;;;;8.95;4.93;;;1.60;99.90;;;;;;5038446;28;20470;-84
2024/01/15 04:01:09;;;;;;;22.33;5.90;;;1.60;99.90;;;;;;5041932;28;20078;-81
2024/01/15 04:03:36;;;;;;;12.40;5.43;;;1.60;99.90;;;;;;5036324;28;20029;-85
2024/01/15 04:06:04;;;;;;;18.25;6.05;;;1.70;99.90;;;;;;5039354;28;20528;-87
2024/01/15 04:08:30;;;;;;;18.15;5.50;;;1.70;99.90;;;;;;5041511;28;20064;-83
2024/01/15 04:10:55;;;;;;;14.13;6.18;;;1.70;99.90;;;;;;5041461;28;20061;-82
2024/01/15 04:13:21;;;;;;;21.27;6.28;;;1.60;99.90;;;;;;5040995;28;20039;-84
2024/01/15 04:15:48;;;;;;;19.17;6.13;;;1.60;99.90;;;;;;5043990;28;20032;-82
2024/01/15 04:18:16;;;;;;;11.05;5.63;;;1.60;99.90;;;;;;5041874;28;20037;-81
2024/01/15 04:20:41;;;;;;;30.30;6.95;;;1.60;99.90;;;;;;5037601;28;20026;-84
2024/01/15 04:23:07;;;;;;;22.50;6.45;;;1.60;99.90;;;;;;5037498;28;20029;-83
2024/01/15 04:25:33;;;;;;;21.02;7.45;;;1.50;99.90;;;;;;5040092;28;20025;-84
2024/01/15 04:27:59;;;;;;;14.43;6.10;;;1.50;99.90;;;;;;5042069;28;20078;-90
2024/01/15 04:30:24;;;;;;;23.73;6.18;;;1.50;99.90;;;;;;5041447;28;20643;-87
2024/01/15 04:32:50;;;;;;;18.90;6.22;;;1.50;99.90;;;;;;5041783;28;20482;-87
2024/01/15 04:35:15;;;;;;;19.92;6.00;;;1.50;99.90;;;;;;5041657;28;20485;-84
2024/01/15 04:37:41;;;;;;;17.08;7.43;;;1.50;99.90;;;;;;5041070;28;20025;-87
2024/01/15 04:40:07;;;;;;;11.60;5.55;;;1.50;99.90;;;;;;5035264;28;20028;-88
2024/01/15 04:42:33;;;;;;;13.07;5.00;;;1.50;99.90;;;;;;5039518;28;20029;-87
2024/01/15 04:44:59;;;;;;;26.00;6.78;;;1.50;99.90;;;;;;5031826;28;20029;-85
2024/01/15 04:47:25;;;;;;;19.15;7.03;;;1.50;99.90;;;;;;5041088;28;20427;-89
2024/01/15 04:49:51;;;;;;;13.05;5.32;;;1.50;99.90;;;;;;5041664;28;20049;-84
2024/01/15 04:52:17;;;;;;;14.75;5.85;;;1.50;99.90;;;;;;5043949;28;20119;-81
2024/01/15 04:54:42;;;;;;;17.15;4.80;;;1.60;99.90;;;;;;5044949;28;20108;-88
2024/01/15 04:57:08;;;;;;;9.35;3.58;;;1.60;99.90;;;;;;5048301;28;20492;-86
2024/01/15 04:59:33;;;;;;;13.23;5.43;;;1.60;99.90;;;;;;5048086;28;20033;-84
2024/01/15 05:01:59;;;;;;;9.10;4.97;;;1.60;99.90;;;;;;5042960;28;20029;-84
2024/01/15 05:04:25;;;;;;;12.38;5.28;;;1.60;99.90;;;;;;5043727;28;20021;-87
2024/01/15 05:06:50;;;;;;;6.55;3.53;;;1.60;99.90;;;;;;5044282;28;20397;-82
2024/01/15 05:09:17;;;;;;;10.60;4.85;;;1.50;99.90;;;;;;5042311;28;20029;-82
2024/01/15 05:11:43;;;;;;;14.52;5.35;;;1.50;99.90;;;;;;5046162;28;20060;-83
2024/01/15 05:14:09;;;;;;;13.82;5.13;;;1.50;99.90;;;;;;5044164;28;20098;-84
2024/01/15 05:16:35;;;;;;;14.25;4.95;;;1.50;99.90;;;;;;5046922;28;20462;-84
2024/01/15 05:19:00;;;;;;;16.73;6.22;;;1.50;99.90;;;;;;5048754;28;20021;-81
2024/01/15 05:21:26;;;;;;;13.32;5.88;;;1.50;99.90;;;;;;5044841;28;20139;-85
2024/01/15 05:23:51;;;;;;;14.35;5.88;;;1.50;99.90;;;;;;5048574;28;20025;-89
2024/01/15 05:26:17;;;;;;;11.45;5.85;;;1.50;99.90;;;;;;5035299;28;20028;-81
2024/01/15 05:28:44;;;;;;;12.63;6.00;;;1.50;99.90;;;;;;5048614;28;20025;-82
2024/01/15 05:31:10;;;;;;;8.77;5.13;;;1.50;99.90;;;;;;5039801;28;20401;-88
2024/01/15 05:33:37;;;;;;;11.35;5.88;;;1.50;99.90;;;;;;5040457;28;20486;-90
2024/01/15 05:36:03;;;;;;;8.50;5.07;;;1.50;99.90;;;;;;5043502;28;20036;-84
2024/01/15 05:38:29;;;;;;;10.48;6.00;;;1.50;99.90;;;;;;5037222;28;20024;-81
2024/01/15 05:40:54;;;;;;;15.02;5.07;;;1.50;99.90;;;;;;5050084;28;20038;-80
2024/01/15 05:43:20;;;;;;;12.07;4.60;;;1.60;99.90;;;;;;5049177;28;20025;-84
2024/01/15 05:45:45;;;;;;;15.10;5.88;;;1.60;99.90;;;;;;5038472;28;20021;-81
2024/01/15 05:48:15;;;;;;;17.45;6.28;;;1.60;99.90;;;;;;5041291;28;20112;-80
2024/01/15 05:50:43;;;;;;;12.43;6.35;;;1.70;99.90;;;;;;5037395;28;20040;-80
2024/01/15 05:53:08;;;;;;;9.73;5.03;;;1.70;99.90;;;;;;5028934;28;20563;-80
2024/01/15 05:55:38;;;;;;;16.17;5.75;;;1.70;99.90;;;;;;5045675;28;20148;-81
2024/01/15 05:58:04;;;;;;;13.10;5.00;;;1.70;99.90;;;;;;5045556;28;20094;-82
2024/01/15 06:00:29;;;;;;;9.63;4.72;;;1.70;99.90;;;;;;5030751;28;20067;-83
2024/01/15 06:02:55;;;;;;;11.30;5.13;;;1.70;99.90;;;;;;5044833;28;20389;-81
2024/01/15 06:05:21;;;;;;;12.43;5.15;;;1.70;99.90;;;;;;5045478;28;20036;-80
2024/01/15 06:07:46;;;;;;;10.88;5.97;;;1.70;99.90;;;;;;5046717;28;20532;-81
2024/01/15 06:10:12;;;;;;;15.35;7.32;;;1.70;99.90;;;;;;5049364;28;20127;-84
2024/01/15 06:12:37;;;;;;;13.82;6.93;;;1.70;99.90;;;;;;5045235;28;20029;-82
2024/01/15 06:15:03;;;;;;;14.10;5.68;;;1.70;99.90;;;;;;5045428;28;20036;-81
2024/01/15 06:17:29;;;;;;;15.90;6.03;;;1.70;99.90;;;;;;5043673;28;20021;-81
2024/01/15 06:19:54;;;;;;;10.13;5.78;;;1.70;99.90;;;;;;5041533;28;20033;-81
2024/01/15 06:22:20;;;;;;;20.02;5.90;;;1.70;99.90;;;;;;5041854;28;21059;-81
2024/01/15 06:24:46;;;;;;;9.98;5.00;;;1.70;99.90;;;;;;5038969;28;20075;-80
2024/01/15 06:27:11;;;;;;;11.30;4.88;;;1.60;99.90;;;;;;5044776;28;20449;-77
2024/01/15 06:29:38;;;;;;;17.50;5.93;;;1.60;99.90;;;;;;5046810;28;20039;-83
2024/01/15 06:32:04;;;;;;;11.35;5.13;;;1.60;99.90;;;;;;5041915;28;20036;-82
2024/01/15 06:34:30;;;;;;;14.57;7.05;;;1.60;99.90;;;;;;5020799;28;20045;-82
2024/01/15 06:36:56;;;;;;;18.95;5.85;;;1.60;99.90;;;;;;5043946;28;20005;-87
2024/01/15 06:39:21;;;;;;;18.20;5.78;;;1.60;99.90;;;;;;5045237;28;20051;-82
2024/01/15 06:41:47;;;;;;;13.73;5.65;;;1.50;99.90;;;;;;5040897;28;20061;-81
2024/01/15 06:44:13;;;;;;;8.70;5.30;;;1.40;99.90;;;;;;5040369;28;20056;-80
2024/01/15 06:46:43;;;;;;;16.70;5.60;;;1.40;99.90;;;;;;5041409;28;20075;-81
2024/01/15 06:49:09;;;;;;;14.10;5.40;;;1.40;99.90;;;;;;5039327;28;20033;-81
2024/01/15 06:51:35;;;;;;;10.52;5.03;;;1.30;99.90;;;;;;5040622;28;20045;-83
2024/01/15 06:54:01;;;;;;;12.43;5.65;;;1.40;99.90;;;;;;5043936;28;20025;-79
2024/01/15 06:56:27;;;;;;;13.05;5.43;;;1.40;99.90;;;;;;5047185;28;20044;-80
2024/01/15 06:58:52;;;;;;;16.30;6.28;;;1.40;99.90;;;;;;5038845;28;20051;-85
2024/01/15 07:01:18;;;;;;;17.73;5.95;;;1.40;99.90;;;;;;5043012;28;20060;-83
2024/01/15 07:03:44;;;;;;;14.88;5.80;;;1.40;99.90;;;;;;5043639;28;20040;-84
2024/01/15 07:06:10;;;;;;;11.60;5.65;;;1.30;99.90;;;;;;5026924;28;20037;-81
2024/01/15 07:08:40;;;;;;;12.30;5.63;;;1.30;99.90;;;;;;5041710;28;20036;-82
2024/01/15 07:11:06;;;;;;;11.52;5.63;;;1.30;99.90;;;;;;5041257;28;20047;-81
2024/01/15 07:13:33;;;;;;;14.65;5.97;;;1.30;99.90;;;;;;5043943;28;20032;-80
2024/01/15 07:15:59;;;;;;;16.15;5.32;;;1.30;99.90;;;;;;5042815;28;20025;-83
2024/01/15 07:18:25;;;;;;;11.55;4.65;;;1.40;99.90;;;;;;5043880;28;20389;-79
2024/01/15 07:20:50;;;;;;;13.32;5.88;;;1.40;99.90;;;;;;5044861;28;20036;-80
2024/01/15 07:23:17;;;;;;;14.35;4.00;;;1.50;99.90;;;;;;5047842;28;20028;-83
2024/01/15 07:25:43;;;;;;;15.00;5.13;;;1.50;99.90;;;;;;5046393;28;20055;-82
2024/01/15 07:28:09;;;;;;;9.75;4.78;;;1.50;99.90;;;;;;5043667;28;20051;-81
2024/01/15 07:30:34;;;;;;;12.90;5.45;;;1.40;99.90;;;;;;5040525;28;20041;-84
2024/01/15 07:33:00;;;;;;;11.50;5.18;;;1.50;99.90;;;;;;5048041;28;20533;-78
2024/01/15 07:35:26;;;;;;;17.33;7.80;;;1.40;99.90;;;;;;5041624;28;20025;-80
2024/01/15 07:37:53;;;;;;;10.13;5.43;;;1.40;99.90;;;;;;5044228;28;20021;-85
2024/01/15 07:40:18;;;;;;;9.65;4.78;;;1.40;99.90;;;;;;5042393;28;20031;-85
2024/01/15 07:42:44;;;;;;;13.20;4.63;;;1.40;99.90;;;;;;5045070;28;20052;-83
2024/01/15 07:45:10;;;;;;;10.95;5.03;;;1.50;99.90;;;;;;5047085;28;20107;-84
2024/01/15 07:47:37;;;;;;;11.65;4.90;;;1.50;99.90;;;;;;5044775;28;20020;-83
2024/01/15 07:50:06;;;;;;;16.40;5.13;;;1.50;99.90;;;;;;5036596;28;20082;-83
2024/01/15 07:52:33;;;;;;;12.20;4.90;;;1.40;99.90;;;;;;5040720;28;20041;-82
2024/01/15 07:55:03;;;;;;;11.95;5.28;;;1.40;99.90;;;;;;5044450;28;20116;-80
2024/01/15 07:57:29;;;;;;;16.35;5.20;;;1.40;99.90;;;;;;5039601;28;20488;-84
2024/01/15 07:59:54;;;;;;;11.20;4.97;;;1.30;99.90;;;;;;5045264;28;20112;-80
2024/01/15 08:02:21;;;;;;;10.32;4.65;;;1.30;99.90;;;;;;5044036;28;20028;-80
2024/01/15 08:04:47;;;;;;;8.75;5.15;;;1.30;99.90;;;;;;5043245;28;20040;-81
2024/01/15 08:07:16;;;;;;;9.98;4.97;;;1.30;99.90;;;;;;5045637;28;20028;-85
2024/01/15 08:09:41;;;;;;;14.75;5.63;;;1.30;99.90;;;;;;5043068;28;20048;-80
2024/01/15 08:12:07;;;;;;;7.45;4.93;;;1.30;99.90;;;;;;5043291;28;20114;-87
2024/01/15 08:14:33;;;;;;;8.32;4.97;;;1.30;99.90;;;;;;5040753;28;20033;-86
2024/01/15 08:16:58;;;;;;;13.27;4.68;;;1.40;99.90;;;;;;5045439;28;20385;-83
2024/01/15 08:19:24;;;;;;;10.60;4.97;;;1.40;99.90;;;;;;5046329;28;20029;-82
2024/01/15 08:21:50;;;;;;;10.50;4.60;;;1.40;99.90;;;;;;5041802;28;20111;-85
2024/01/15 08:24:16;;;;;;;8.45;4.68;;;1.40;99.90;;;;;;5042687;28;20029;-80
2024/01/15 08:26:42;;;;;;;7.85;4.55;;;1.50;99.90;;;;;;5039510;28;20029;-84
2024/01/15 08:29:08;;;;;;;8.35;4.78;;;1.50;99.90;;;;;;5043780;28;20036;-85
2024/01/15 08:31:33;;;;;;;6.65;4.18;;;1.50;99.90;;;;;;5043632;28;20032;-81
2024/01/15 08:34:01;;;;;;;14.68;4.80;;;1.50;99.90;;;;;;5041410;28;20493;-81
2024/01/15 08:36:28;;;;;;;12.82;5.75;;;1.50;99.90;;;;;;5042484;28;20029;-82
2024/01/15 08:38:53;;;;;;;12.18;5.38;;;1.50;99.90;;;;;;5046336;28;20037;-87
2024/01/15 08:41:19;;;;;;;13.27;4.80;;;1.50;99.90;;;;;;5042116;28;20039;-80
2024/01/15 08:43:44;;;;;;;11.63;5.60;;;1.40;99.90;;;;;;5043381;28;20362;-82
2024/01/15 08:46:10;;;;;;;8.88;4.30;;;1.50;99.90;;;;;;5049518;28;20123;-82
2024/01/15 08:48:39;;;;;;;7.82;3.72;;;1.50;99.90;;;;;;5041405;28;20040;-80
2024/01/15 08:51:05;;;;;;;12.05;4.72;;;1.50;99.90;;;;;;5041989;28;20493;-80
2024/01/15 08:53:31;;;;;;;8.82;3.83;;;1.50;99.90;;;;;;5042544;28;20553;-81
2024/01/15 08:55:56;;;;;;;6.70;3.90;;;1.50;99.90;;;;;;5042956;28;20052;-80
2024/01/15 08:58:24;;;;;;;8.35;4.22;;;1.50;99.90;;;;;;5042922;28;20500;-81
2024/01/15 09:00:50;;;;;;;9.07;5.00;;;1.50;99.90;;;;;;5041151;28;20033;-88
2024/01/15 09:03:16;;;;;;;13.88;5.45;;;1.50;99.90;;;;;;5042439;28;20458;-82
2024/01/15 09:05:42;;;;;;;7.55;4.20;;;1.50;99.90;;;;;;5050136;28;20024;-81
2024/01/15 09:08:08;;;;;;;6.80;3.85;;;1.50;99.90;;;;;;5048346;28;20052;-81
2024/01/15 09:10:34;;;;;;;8.75;4.60;;;1.50;99.90;;;;;;5043507;28;20041;-81
2024/01/15 09:13:00;;;;;;;7.47;4.30;;;1.60;99.90;;;;;;5042493;28;20025;-80
2024/01/15 09:15:25;;;;;;;11.40;5.55;;;1.50;99.90;;;;;;5045186;28;20025;-80
2024/01/15 09:17:51;;;;;;;6.35;3.05;;;1.50;99.90;;;;;;5042705;28;20505;-79
2024/01/15 09:20:17;;;;;;;8.75;3.83;;;1.60;99.90;;;;;;5045144;28;20029;-82
2024/01/15 09:22:42;;;;;;;6.97;4.22;;;1.60;99.90;;;;;;5041601;28;20021;-80
2024/01/15 09:25:11;;;;;;;16.58;6.70;;;1.60;99.90;;;;;;5051013;28;20313;-84
2024/01/15 09:27:39;;;;;;;9.65;3.47;;;1.60;99.90;;;;;;5047548;28;20379;-80
2024/01/15 09:30:06;;;;;;;5.50;3.45;;;1.70;99.90;;;;;;5044428;28;20065;-83
2024/01/15 09:32:32;;;;;;;4.85;3.22;;;1.70;99.90;;;;;;5044090;28;20303;-86
2024/01/15 09:34:58;;;;;;;5.78;3.03;;;1.70;99.90;;;;;;5050656;28;20056;-83
2024/01/15 09:37:24;;;;;;;15.43;7.85;;;1.70;99.90;;;;;;5058186;28;20056;-82
2024/01/15 09:39:50;;;;;;;18.85;8.75;;;1.70;99.90;;;;;;5047044;28;20067;-80
2024/01/15 09:42:16;;;;;;;6.10;3.47;;;1.80;99.90;;;;;;5046955;28;20119;-85
2024/01/15 09:44:42;;;;;;;5.18;2.75;;;1.80;99.90;;;;;;5046479;28;20096;-79
2024/01/15 09:47:08;;;;;;;5.93;3.58;;;1.80;99.90;;;;;;5049887;28;20225;-80
2024/01/15 09:49:34;;;;;;;3.28;2.20;;;1.70;99.90;;;;;;5060982;28;20024;-84
2024/01/15 09:52:01;;;;;;;4.25;2.70;;;1.70;99.90;;;;;;5053966;28;20064;-81
2024/01/15 09:54:27;;;;;;;9.70;6.00;;;1.70;99.90;;;;;;5047288;28;20028;-79
2024/01/15 09:56:54;;;;;;;5.35;4.35;;;1.70;99.90;;;;;;5048441;28;20021;-80
2024/01/15 09:59:22;;;;;;;14.38;9.25;;;1.70;99.90;;;;;;5046266;28;20086;-79
2024/01/15 10:01:50;;;;;;;3.38;2.67;;;1.80;99.90;;;;;;5045265;28;20045;-82
2024/01/15 10:04:16;;;;;;;6.88;3.80;;;1.80;99.90;;;;;;5053239;28;20122;-82
2024/01/15 10:06:46;;;;;;;5.65;4.65;;;1.80;99.90;;;;;;5025928;28;20120;-79
2024/01/15 10:09:14;;;;;;;4.55;2.75;;;1.80;99.90;;;;;;5045029;28;20052;-80
2024/01/15 10:11:42;;;;;;;4.00;2.90;;;1.80;99.90;;;;;;5045575;28;20110;-83
2024/01/15 10:14:13;;;;;;;6.03;3.35;;;1.90;99.90;;;;;;5047009;28;20114;-84
2024/01/15 10:16:45;;;;;;;5.75;2.67;;;2.00;99.90;;;;;;5045740;28;20385;-86
2024/01/15 10:19:11;;;;;;;2.78;2.55;;;2.00;99.90;;;;;;5046637;28;20029;-85
2024/01/15 10:21:37;;;;;;;4.07;2.78;;;2.00;99.90;;;;;;5052733;28;20107;-83
2024/01/15 10:24:04;;;;;;;7.53;2.88;;;2.00;99.90;;;;;;5057951;28;20032;-81
2024/01/15 10:26:30;;;;;;;6.82;2.63;;;2.10;99.90;;;;;;5057942;28;20420;-79
2024/01/15 10:28:56;;;;;;;4.72;2.67;;;2.10;99.90;;;;;;5044679;28;20025;-85
2024/01/15 10:31:22;;;;;;;3.40;2.20;;;2.10;99.90;;;;;;5046512;28;20107;-80
2024/01/15 10:33:51;;;;;;;2.35;2.15;;;2.10;99.90;;;;;;5054337;28;20023;-80
2024/01/15 10:36:17;;;;;;;5.00;2.17;;;2.10;99.90;;;;;;5038518;28;20465;-85
2024/01/15 10:38:46;;;;;;;3.95;2.13;;;2.10;99.90;;;;;;5044308;28;20036;-81
2024/01/15 10:41:12;;;;;;;7.72;2.45;;;2.10;99.90;;;;;;5043877;28;20028;-84
2024/01/15 10:43:40;;;;;;;2.70;1.80;;;2.10;99.90;;;;;;5047287;28;20376;-82
2024/01/15 10:46:07;;;;;;;4.32;2.53;;;2.20;99.90;;;;;;5040868;28;20498;-80
2024/01/15 10:48:35;;;;;;;3.80;2.60;;;2.10;99.90;;;;;;5041716;28;20032;-83
2024/01/15 10:51:10;;;;;;;3.60;2.20;;;2.10;99.90;;;;;;5040876;28;20493;-81
2024/01/15 10:53:40;;;;;;;3.15;2.72;;;2.10;99.90;;;;;;5045904;28;20026;-81
2024/01/15 10:56:07;;;;;;;4.18;2.55;;;2.20;99.90;;;;;;5044951;28;20029;-87
2024/01/15 10:58:34;;;;;;;4.03;2.63;;;2.10;99.90;;;;;;5045032;28;20112;-87
2024/01/15 11:00:59;;;;;;;4.18;2.70;;;2.10;99.90;;;;;;5045818;28;20078;-80
2024/01/15 11:03:26;;;;;;;7.80;3.05;;;2.10;99.90;;;;;;5045426;28;20029;-80
2024/01/15 11:05:54;;;;;;;8.45;2.72;;;2.10;99.90;;;;;;5041815;28;20029;-81
2024/01/15 11:08:21;;;;;;;7.57;2.97;;;2.10;99.90;;;;;;5043731;28;20017;-81
2024/01/15 11:10:52;;;;;;;10.20;2.72;;;2.10;99.90;;;;;;5045192;28;20167;-79
2024/01/15 11:13:33;;;;;;;7.85;3.33;;;2.10;99.90;;;;;;5034439;28;20060;-86
2024/01/15 11:16:03;;;;;;;5.82;3.25;;;2.10;99.90;;;;;;5039470;28;20032;-79
2024/01/15 11:18:36;;;;;;;7.15;3.08;;;2.10;99.90;;;;;;5043671;28;20313;-79
2024/01/15 11:21:16;;;;;;;8.77;3.72;;;2.10;99.90;;;;;;5045728;28;20466;-83
2024/01/15 11:23:47;;;;;;;6.50;3.15;;;2.10;99.90;;;;;;5043362;28;20025;-80
2024/01/15 11:26:33;;;;;;;4.93;3.38;;;2.10;99.90;;;;;;5044975;28;20174;-81
2024/01/15 11:29:06;;;;;;;9.93;5.55;;;2.00;99.90;;;;;;5043616;28;20480;-80
2024/01/15 11:31:41;;;;;;;5.65;2.55;;;2.10;99.90;;;;;;5043028;28;20033;-81
2024/01/15 11:34:08;;;;;;;3.47;3.15;;;2.00;99.90;;;;;;5042721;28;20032;-81
2024/01/15 11:36:45;;;;;;;10.88;3.63;;;2.10;99.90;;;;;;5041324;28;20029;-80
2024/01/15 11:39:32;;;;;;;5.95;2.72;;;2.10;99.90;;;;;;5042246;28;20036;-80
2024/01/15 11:42:03;;;;;;;5.07;3.42;;;2.20;99.90;;;;;;5024439;28;20528;-84
2024/01/15 11:44:30;;;;;;;8.18;3.00;;;2.30;99.90;;;;;;5033252;28;20029;-80
2024/01/15 11:47:07;;;;;;;9.88;2.85;;;2.30;99.90;;;;;;5044604;28;20343;-82
2024/01/15 11:49:54;;;;;;;6.13;2.88;;;2.30;99.90;;;;;;5037111;28;20029;-81
2024/01/15 11:52:21;;;;;;;6.68;2.75;;;2.40;99.90;;;;;;5036967;28;20137;-82
2024/01/15 11:55:05;;;;;;;10.80;3.17;;;2.40;99.90;;;;;;5043544;28;20052;-79
2024/01/15 11:57:48;;;;;;;4.85;2.63;;;2.40;99.90;;;;;;5051369;28;20045;-80
2024/01/15 12:00:15;;;;;;;3.35;2.47;;;2.40;99.90;;;;;;5039812;28;20120;-80
2024/01/15 12:02:42;;;;;;;6.50;2.72;;;2.30;99.90;;;;;;5042043;28;20094;-81
2024/01/15 12:05:12;;;;;;;2.30;2.10;;;2.40;99.90;;;;;;5042073;28;20029;-82
2024/01/15 12:07:42;;;;;;;3.33;2.00;;;2.40;99.90;;;;;;5041498;28;20025;-85
2024/01/15 12:10:14;;;;;;;3.60;2.20;;;2.40;99.90;;;;;;5040129;28;20033;-82
2024/01/15 12:13:02;;;;;;;2.67;1.92;;;2.40;99.90;;;;;;5038474;28;20094;-80
2024/01/15 12:15:29;;;;;;;1.92;1.70;;;2.50;99.90;;;;;;5038476;28;20440;-82
2024/01/15 12:17:57;;;;;;;2.83;1.90;;;2.50;99.90;;;;;;5041769;28;20497;-82
2024/01/15 12:20:26;;;;;;;5.30;2.47;;;2.50;99.90;;;;;;5045529;28;20174;-81
2024/01/15 12:22:52;;;;;;;3.15;2.95;;;2.50;99.90;;;;;;5047548;28;20102;-82
2024/01/15 12:25:18;;;;;;;4.03;2.13;;;2.40;99.90;;;;;;5043662;28;20508;-81
2024/01/15 12:27:44;;;;;;;4.70;1.95;;;2.40;99.90;;;;;;5045622;28;20029;-80
2024/01/15 12:30:12;;;;;;;1.88;1.70;;;2.40;99.90;;;;;;5040192;28;20043;-80
2024/01/15 12:32:38;;;;;;;2.67;1.90;;;2.40;99.90;;;;;;5044339;28;20106;-82
2024/01/15 12:35:06;;;;;;;2.47;1.80;;;2.30;99.90;;;;;;5043824;28;20557;-86
2024/01/15 12:37:32;;;;;;;3.70;1.95;;;2.20;99.90;;;;;;5047232;28;20020;-80
2024/01/15 12:39:59;;;;;;;20.48;13.23;;;2.10;99.90;;;;;;5040893;28;20448;-80
2024/01/15 12:42:25;;;;;;;29.63;12.50;;;2.10;99.90;;;;;;5039288;28;20025;-79
2024/01/15 12:44:50;;;;;;;21.25;7.60;;;2.00;99.90;;;;;;5049215;28;20040;-81
2024/01/15 12:47:18;;;;;;;1.88;1.70;;;2.00;99.90;;;;;;5037102;28;20515;-79
2024/01/15 12:49:49;;;;;;;4.75;3.50;;;1.90;99.90;;;;;;5039895;28;20160;-80
2024/01/15 12:52:14;;;;;;;6.93;2.78;;;2.00;99.90;;;;;;5040991;28;20057;-82